createdAt,value
2023-05-10T00:00:04.329Z,210.68
2023-05-10T00:01:04.369Z,209.99
2023-05-10T00:02:04.467Z,212.09
2023-05-10T00:03:04.468Z,211.75
2023-05-10T00:04:04.415Z,208.80
2023-05-10T00:05:04.349Z,210.70
2023-05-10T00:06:04.369Z,210.13
2023-05-10T00:07:04.346Z,210.68
2023-05-10T00:08:04.373Z,210.11
2023-05-10T00:09:04.347Z,212.08
2023-05-10T00:10:04.307Z,205.33
2023-05-10T00:11:04.290Z,211.84
2023-05-10T00:12:04.347Z,208.93
2023-05-10T00:13:04.345Z,208.58
2023-05-10T00:14:04.354Z,210.15
2023-05-10T00:15:04.292Z,209.48
2023-05-10T00:16:04.415Z,211.90
2023-05-10T00:17:04.372Z,211.48
2023-05-10T00:18:04.495Z,208.95
2023-05-10T00:19:04.405Z,213.15
2023-05-10T00:20:04.389Z,212.72
2023-05-10T00:21:04.396Z,210.80
2023-05-10T00:22:04.421Z,212.71
2023-05-10T00:23:04.416Z,210.80
2023-05-10T00:24:04.440Z,211.46
2023-05-10T00:25:04.416Z,210.96
2023-05-10T00:26:04.429Z,213.46
2023-05-10T00:27:04.430Z,210.21
2023-05-10T00:28:04.439Z,211.59
2023-05-10T00:29:04.453Z,212.49
2023-05-10T00:30:04.475Z,209.68
2023-05-10T00:31:04.492Z,211.39
2023-05-10T00:32:04.583Z,210.40
2023-05-10T00:33:04.524Z,209.59
2023-05-10T00:34:04.538Z,212.58
2023-05-10T00:35:04.587Z,210.44
2023-05-10T00:36:04.536Z,214.05
2023-05-10T00:37:04.510Z,210.95
2023-05-10T00:38:04.604Z,209.55
2023-05-10T00:39:04.627Z,210.94
2023-05-10T00:40:04.595Z,210.31
2023-05-10T00:41:04.611Z,211.37
2023-05-10T00:42:04.616Z,210.75
2023-05-10T00:43:04.630Z,209.41
2023-05-10T00:44:04.613Z,209.90
2023-05-10T00:45:04.660Z,210.14
2023-05-10T00:46:04.623Z,212.21
2023-05-10T00:47:04.703Z,209.99
2023-05-10T00:48:04.688Z,212.67
2023-05-10T00:49:04.670Z,211.79
2023-05-10T00:50:04.714Z,211.21
2023-05-10T00:51:04.684Z,211.39
2023-05-10T00:52:04.706Z,211.87
2023-05-10T00:53:04.712Z,211.29
2023-05-10T00:54:04.701Z,212.56
2023-05-10T00:55:04.727Z,213.96
2023-05-10T00:56:04.747Z,210.73
2023-05-10T00:57:04.777Z,214.36
2023-05-10T00:58:04.745Z,212.80
2023-05-10T00:59:04.760Z,213.63
2023-05-10T01:00:04.765Z,213.43
2023-05-10T01:01:04.799Z,214.10
2023-05-10T01:02:04.858Z,212.98
2023-05-10T01:03:04.922Z,211.59
2023-05-10T01:04:04.863Z,214.96
2023-05-10T01:05:04.929Z,212.06
2023-05-10T01:06:04.887Z,210.39
2023-05-10T01:07:04.984Z,212.97
2023-05-10T01:08:04.897Z,211.53
2023-05-10T01:09:04.936Z,209.41
2023-05-10T01:10:04.924Z,211.82
2023-05-10T01:11:04.926Z,214.36
2023-05-10T01:12:05.038Z,212.89
2023-05-10T01:13:05.005Z,215.26
2023-05-10T01:14:04.988Z,211.54
2023-05-10T01:15:05.015Z,213.24
2023-05-10T01:16:05.031Z,214.39
2023-05-10T01:17:05.015Z,213.08
2023-05-10T01:18:05.047Z,211.05
2023-05-10T01:19:05.073Z,211.35
2023-05-10T01:20:05.103Z,216.09
2023-05-10T01:21:05.091Z,214.91
2023-05-10T01:22:05.102Z,216.22
2023-05-10T01:23:05.101Z,214.19
2023-05-10T01:24:05.160Z,215.12
2023-05-10T01:25:05.154Z,213.63
2023-05-10T01:26:05.163Z,214.96
2023-05-10T01:27:05.204Z,215.74
2023-05-10T01:28:05.241Z,215.83
2023-05-10T01:29:05.236Z,216.66
2023-05-10T01:30:14.253Z,214.64
2023-05-10T01:31:06.269Z,214.91
2023-05-10T01:32:05.226Z,215.53
2023-05-10T01:33:05.246Z,215.84
2023-05-10T01:34:05.205Z,217.60
2023-05-10T01:35:05.153Z,217.59
2023-05-10T01:36:05.164Z,218.30
2023-05-10T01:37:05.167Z,216.56
2023-05-10T01:38:05.207Z,216.43
2023-05-10T01:39:05.141Z,218.72
2023-05-10T01:40:05.173Z,218.73
2023-05-10T01:41:05.130Z,217.07
2023-05-10T01:42:05.154Z,216.54
2023-05-10T01:43:05.164Z,219.04
2023-05-10T01:44:05.109Z,220.70
2023-05-10T01:45:05.096Z,220.81
2023-05-10T01:46:05.080Z,218.70
2023-05-10T01:47:05.118Z,218.71
2023-05-10T01:48:05.150Z,216.58
2023-05-10T01:49:05.109Z,219.42
2023-05-10T01:50:05.076Z,217.65
2023-05-10T01:51:05.090Z,217.81
2023-05-10T01:52:05.060Z,214.31
2023-05-10T01:53:05.040Z,216.48
2023-05-10T01:54:05.036Z,216.57
2023-05-10T01:55:05.047Z,216.46
2023-05-10T01:56:05.018Z,218.05
2023-05-10T01:57:05.033Z,215.24
2023-05-10T01:58:05.034Z,216.14
2023-05-10T01:59:05.006Z,214.16
2023-05-10T02:00:04.978Z,217.23
2023-05-10T02:01:05.040Z,217.11
2023-05-10T02:02:05.065Z,216.39
2023-05-10T02:03:05.123Z,219.16
2023-05-10T02:04:05.120Z,216.15
2023-05-10T02:05:05.042Z,218.13
2023-05-10T02:06:05.079Z,218.66
2023-05-10T02:07:05.105Z,216.58
2023-05-10T02:08:05.146Z,217.55
2023-05-10T02:09:05.160Z,218.32
2023-05-10T02:10:05.149Z,216.70
2023-05-10T02:11:05.230Z,219.69
2023-05-10T02:12:05.190Z,219.84
2023-05-10T02:13:05.269Z,217.56
2023-05-10T02:14:05.242Z,215.60
2023-05-10T02:15:05.286Z,217.64
2023-05-10T02:16:05.433Z,216.75
2023-05-10T02:17:05.435Z,218.04
2023-05-10T02:18:05.433Z,216.58
2023-05-10T02:19:05.410Z,221.02
2023-05-10T02:20:05.388Z,216.37
2023-05-10T02:21:05.428Z,218.67
2023-05-10T02:22:05.463Z,218.13
2023-05-10T02:23:05.492Z,218.78
2023-05-10T02:24:05.480Z,219.80
2023-05-10T02:25:05.524Z,218.22
2023-05-10T02:26:05.541Z,217.87
2023-05-10T02:27:05.509Z,219.46
2023-05-10T02:28:05.509Z,218.05
2023-05-10T02:29:05.547Z,217.12
2023-05-10T02:30:05.566Z,220.51
2023-05-10T02:31:05.598Z,216.20
2023-05-10T02:32:05.619Z,220.45
2023-05-10T02:33:05.647Z,221.90
2023-05-10T02:34:05.609Z,221.91
2023-05-10T02:35:05.723Z,221.91
2023-05-10T02:36:05.721Z,223.34
2023-05-10T02:37:05.681Z,223.67
2023-05-10T02:38:05.737Z,222.12
2023-05-10T02:39:05.724Z,221.59
2023-05-10T02:40:05.728Z,222.28
2023-05-10T02:41:05.747Z,219.40
2023-05-10T02:42:05.750Z,219.71
2023-05-10T02:43:05.785Z,222.02
2023-05-10T02:44:05.832Z,221.98
2023-05-10T02:45:05.838Z,222.44
2023-05-10T02:46:05.891Z,222.43
2023-05-10T02:47:05.899Z,221.80
2023-05-10T02:48:05.902Z,220.86
2023-05-10T02:49:05.858Z,223.63
2023-05-10T02:50:05.867Z,220.54
2023-05-10T02:51:05.960Z,222.31
2023-05-10T02:52:05.967Z,222.89
2023-05-10T02:53:05.993Z,220.80
2023-05-10T02:54:05.957Z,221.67
2023-05-10T02:55:06.006Z,223.75
2023-05-10T02:56:06.010Z,222.18
2023-05-10T02:57:06.062Z,222.62
2023-05-10T02:58:06.111Z,223.11
2023-05-10T02:59:06.094Z,220.38
2023-05-10T03:00:06.145Z,221.88
2023-05-10T03:01:06.179Z,224.06
2023-05-10T03:02:06.189Z,224.01
2023-05-10T03:03:06.286Z,223.72
2023-05-10T03:04:06.289Z,224.46
2023-05-10T03:05:06.238Z,224.31
2023-05-10T03:06:06.279Z,224.64
2023-05-10T03:07:06.340Z,222.92
2023-05-10T03:08:06.345Z,223.76
2023-05-10T03:09:06.354Z,223.99
2023-05-10T03:10:06.398Z,225.72
2023-05-10T03:11:06.388Z,221.75
2023-05-10T03:12:06.402Z,225.15
2023-05-10T03:13:06.461Z,222.96
2023-05-10T03:14:06.480Z,225.54
2023-05-10T03:15:06.461Z,226.34
2023-05-10T03:16:06.510Z,224.19
2023-05-10T03:17:06.497Z,223.12
2023-05-10T03:18:06.656Z,225.62
2023-05-10T03:19:06.553Z,220.49
2023-05-10T03:20:06.560Z,223.37
2023-05-10T03:21:06.579Z,221.55
2023-05-10T03:22:06.617Z,221.82
2023-05-10T03:23:06.649Z,224.23
2023-05-10T03:24:06.631Z,222.47
2023-05-10T03:25:06.692Z,224.13
2023-05-10T03:26:06.675Z,224.88
2023-05-10T03:27:06.732Z,226.79
2023-05-10T03:28:06.738Z,226.53
2023-05-10T03:29:06.752Z,226.50
2023-05-10T03:30:06.820Z,228.47
2023-05-10T03:31:06.833Z,223.46
2023-05-10T03:32:06.818Z,226.70
2023-05-10T03:33:06.982Z,227.01
2023-05-10T03:34:06.886Z,225.14
2023-05-10T03:35:06.903Z,225.10
2023-05-10T03:36:06.941Z,227.35
2023-05-10T03:37:06.948Z,226.27
2023-05-10T03:38:06.966Z,224.40
2023-05-10T03:39:07.035Z,228.59
2023-05-10T03:40:07.003Z,225.04
2023-05-10T03:41:07.089Z,224.14
2023-05-10T03:42:07.091Z,227.71
2023-05-10T03:43:07.099Z,223.44
2023-05-10T03:44:07.132Z,223.84
2023-05-10T03:45:07.159Z,224.45
2023-05-10T03:46:07.252Z,223.80
2023-05-10T03:47:07.339Z,225.02
2023-05-10T03:48:07.327Z,225.55
2023-05-10T03:49:07.253Z,227.72
2023-05-10T03:50:07.293Z,228.35
2023-05-10T03:51:07.356Z,225.33
2023-05-10T03:52:07.356Z,230.11
2023-05-10T03:53:07.367Z,227.23
2023-05-10T03:54:07.386Z,228.44
2023-05-10T03:55:07.428Z,227.84
2023-05-10T03:56:07.442Z,225.56
2023-05-10T03:57:07.455Z,226.85
2023-05-10T03:58:07.496Z,230.58
2023-05-10T03:59:07.556Z,232.10
2023-05-10T04:00:07.552Z,227.86
2023-05-10T04:01:07.602Z,230.32
2023-05-10T04:02:07.778Z,228.63
2023-05-10T04:03:07.697Z,225.02
2023-05-10T04:04:07.844Z,223.59
2023-05-10T04:05:07.754Z,220.29
2023-05-10T04:06:07.772Z,215.46
2023-05-10T04:07:07.798Z,209.40
2023-05-10T04:08:07.874Z,209.10
2023-05-10T04:09:07.888Z,204.15
2023-05-10T04:10:07.937Z,198.82
2023-05-10T04:11:07.995Z,195.67
2023-05-10T04:12:10.750Z,192.11
2023-05-10T04:13:08.077Z,188.39
2023-05-10T04:14:08.125Z,186.12
2023-05-10T04:15:08.045Z,181.92
2023-05-10T04:16:08.028Z,176.75
2023-05-10T04:17:08.132Z,177.21
2023-05-10T04:18:08.964Z,173.14
2023-05-10T04:19:08.016Z,171.56
2023-05-10T04:20:08.025Z,169.35
2023-05-10T04:21:08.006Z,163.85
2023-05-10T04:22:07.970Z,165.61
2023-05-10T04:23:07.981Z,160.57
2023-05-10T04:24:07.959Z,160.10
2023-05-10T04:25:08.010Z,158.49
2023-05-10T04:26:07.953Z,155.19
2023-05-10T04:27:07.953Z,152.06
2023-05-10T04:28:07.938Z,152.42
2023-05-10T04:29:07.982Z,150.29
2023-05-10T04:30:07.952Z,141.22
2023-05-10T04:31:08.023Z,142.63
2023-05-10T04:32:07.936Z,138.26
2023-05-10T04:33:08.067Z,137.61
2023-05-10T04:34:07.885Z,134.29
2023-05-10T04:35:07.877Z,134.59
2023-05-10T04:36:07.897Z,133.56
2023-05-10T04:37:07.874Z,135.07
2023-05-10T04:38:07.877Z,134.58
2023-05-10T04:39:07.880Z,136.61
2023-05-10T04:40:07.889Z,136.63
2023-05-10T04:41:07.918Z,136.84
2023-05-10T04:42:07.823Z,135.87
2023-05-10T04:43:07.832Z,137.30
2023-05-10T04:44:07.809Z,135.53
2023-05-10T04:45:07.810Z,134.83
2023-05-10T04:46:07.853Z,135.42
2023-05-10T04:47:08.505Z,136.55
2023-05-10T04:48:07.853Z,133.79
2023-05-10T04:49:07.770Z,137.81
2023-05-10T04:50:07.799Z,136.32
2023-05-10T04:51:07.800Z,136.88
2023-05-10T04:52:07.750Z,142.82
2023-05-10T04:53:07.768Z,136.28
2023-05-10T04:54:07.741Z,137.90
2023-05-10T04:55:07.786Z,138.51
2023-05-10T04:56:07.829Z,136.09
2023-05-10T04:57:07.920Z,138.64
2023-05-10T04:58:07.903Z,138.00
2023-05-10T04:59:07.985Z,141.38
2023-05-10T05:00:08.021Z,142.45
2023-05-10T05:01:08.060Z,136.76
2023-05-10T05:02:08.170Z,112.54
2023-05-10T05:03:08.238Z,94.53
2023-05-10T05:04:08.216Z,87.59
2023-05-10T05:05:08.160Z,81.39
2023-05-10T05:06:08.183Z,76.33
2023-05-10T05:07:08.168Z,86.03
2023-05-10T05:08:08.185Z,91.00
2023-05-10T05:09:08.179Z,89.10
2023-05-10T05:10:08.172Z,88.58
2023-05-10T05:11:08.165Z,90.21
2023-05-10T05:12:08.136Z,91.79
2023-05-10T05:13:08.275Z,95.53
2023-05-10T05:14:08.182Z,102.31
2023-05-10T05:15:09.787Z,108.08
2023-05-10T05:16:08.246Z,102.15
2023-05-10T05:17:08.148Z,101.27
2023-05-10T05:18:08.229Z,103.08
2023-05-10T05:19:08.158Z,102.17
2023-05-10T05:20:08.199Z,104.27
2023-05-10T05:21:08.164Z,105.10
2023-05-10T05:22:08.173Z,108.05
2023-05-10T05:23:08.195Z,106.87
2023-05-10T05:24:08.202Z,103.22
2023-05-10T05:25:08.199Z,100.92
2023-05-10T05:26:08.197Z,99.93
2023-05-10T05:27:08.204Z,97.36
2023-05-10T05:28:08.171Z,93.68
2023-05-10T05:29:08.243Z,84.86
2023-05-10T05:30:08.248Z,80.98
2023-05-10T05:31:08.279Z,81.43
2023-05-10T05:32:08.467Z,74.87
2023-05-10T05:33:08.315Z,83.44
2023-05-10T05:34:08.272Z,94.70
2023-05-10T05:35:08.235Z,87.33
2023-05-10T05:36:08.264Z,89.91
2023-05-10T05:37:08.298Z,65.53
2023-05-10T05:38:09.105Z,40.70
2023-05-10T05:39:08.240Z,47.27
2023-05-10T05:40:08.311Z,51.42
2023-05-10T05:41:08.318Z,73.60
2023-05-10T05:42:08.307Z,81.68
2023-05-10T05:43:08.343Z,64.74
2023-05-10T05:44:08.328Z,76.49
2023-05-10T05:45:08.350Z,68.25
2023-05-10T05:46:08.407Z,80.82
2023-05-10T05:47:08.363Z,88.34
2023-05-10T05:48:08.406Z,97.90
2023-05-10T05:49:08.446Z,102.69
2023-05-10T05:50:08.378Z,108.50
2023-05-10T05:51:08.494Z,111.78
2023-05-10T05:52:08.432Z,117.92
2023-05-10T05:53:08.522Z,121.77
2023-05-10T05:54:08.595Z,126.12
2023-05-10T05:55:08.623Z,128.93
2023-05-10T05:56:08.632Z,133.26
2023-05-10T05:57:08.672Z,135.95
2023-05-10T05:58:08.730Z,134.35
2023-05-10T05:59:08.801Z,134.41
2023-05-10T06:00:08.827Z,134.83
2023-05-10T06:01:08.807Z,134.89
2023-05-10T06:02:08.843Z,140.15
2023-05-10T06:03:08.984Z,144.74
2023-05-10T06:04:08.936Z,147.07
2023-05-10T06:05:09.397Z,148.77
2023-05-10T06:06:08.952Z,155.41
2023-05-10T06:07:08.958Z,160.09
2023-05-10T06:08:08.898Z,162.73
2023-05-10T06:09:08.918Z,168.00
2023-05-10T06:10:08.930Z,170.82
2023-05-10T06:11:09.431Z,172.37
2023-05-10T06:12:08.880Z,180.15
2023-05-10T06:13:09.977Z,180.19
2023-05-10T06:14:09.010Z,181.70
2023-05-10T06:15:08.907Z,183.28
2023-05-10T06:16:08.965Z,191.13
2023-05-10T06:17:08.987Z,198.54
2023-05-10T06:18:09.055Z,199.27
2023-05-10T06:19:08.985Z,202.63
2023-05-10T06:20:09.015Z,196.54
2023-05-10T06:21:09.050Z,203.03
2023-05-10T06:22:09.050Z,207.39
2023-05-10T06:23:09.102Z,213.19
2023-05-10T06:24:09.173Z,221.49
2023-05-10T06:25:09.186Z,224.41
2023-05-10T06:26:09.321Z,225.02
2023-05-10T06:27:09.339Z,229.78
2023-05-10T06:28:10.121Z,231.74
2023-05-10T06:29:09.455Z,233.62
2023-05-10T06:30:13.402Z,238.65
2023-05-10T06:31:09.530Z,238.80
2023-05-10T06:32:09.538Z,239.63
2023-05-10T06:33:09.623Z,242.59
2023-05-10T06:34:09.493Z,248.03
2023-05-10T06:35:09.470Z,269.39
2023-05-10T06:36:09.514Z,264.32
2023-05-10T06:37:09.445Z,239.19
2023-05-10T06:38:09.517Z,202.86
2023-05-10T06:39:09.451Z,202.69
2023-05-10T06:40:09.448Z,188.20
2023-05-10T06:41:09.447Z,158.24
2023-05-10T06:42:09.386Z,165.09
2023-05-10T06:43:09.410Z,148.32
2023-05-10T06:44:09.872Z,115.84
2023-05-10T06:45:09.411Z,107.37
2023-05-10T06:46:09.430Z,111.37
2023-05-10T06:47:09.370Z,112.86
2023-05-10T06:48:09.431Z,115.42
2023-05-10T06:49:09.395Z,123.20
2023-05-10T06:50:09.498Z,117.25
2023-05-10T06:51:09.361Z,133.06
2023-05-10T06:52:09.384Z,150.28
2023-05-10T06:53:09.398Z,160.68
2023-05-10T06:54:09.316Z,162.62
2023-05-10T06:55:09.475Z,168.55
2023-05-10T06:56:09.372Z,172.43
2023-05-10T06:57:23.370Z,175.15
2023-05-10T06:58:10.329Z,175.36
2023-05-10T06:59:09.331Z,175.49
2023-05-10T07:00:09.503Z,175.29
2023-05-10T07:01:09.571Z,176.09
2023-05-10T07:02:09.344Z,181.11
2023-05-10T07:03:09.318Z,181.77
2023-05-10T07:04:09.298Z,186.33
2023-05-10T07:05:09.315Z,188.39
2023-05-10T07:06:13.232Z,187.16
2023-05-10T07:07:09.278Z,187.25
2023-05-10T07:08:09.255Z,187.34
2023-05-10T07:09:09.437Z,187.70
2023-05-10T07:10:09.247Z,169.41
2023-05-10T07:11:09.247Z,163.54
2023-05-10T07:12:11.103Z,165.38
2023-05-10T07:13:09.303Z,165.62
2023-05-10T07:14:09.202Z,166.68
2023-05-10T07:15:09.449Z,170.08
2023-05-10T07:16:09.268Z,173.50
2023-05-10T07:17:09.268Z,177.45
2023-05-10T07:18:09.253Z,179.31
2023-05-10T07:19:09.216Z,183.31
2023-05-10T07:20:09.199Z,181.45
2023-05-10T07:21:09.241Z,183.77
2023-05-10T07:22:09.150Z,183.99
2023-05-10T07:23:09.170Z,184.26
2023-05-10T07:24:09.162Z,181.82
2023-05-10T07:25:09.128Z,185.78
2023-05-10T07:26:09.140Z,172.79
2023-05-10T07:27:09.324Z,175.03
2023-05-10T07:28:09.151Z,165.06
2023-05-10T07:29:09.264Z,178.10
2023-05-10T07:30:09.102Z,168.40
2023-05-10T07:31:09.496Z,159.59
2023-05-10T07:32:09.171Z,158.61
2023-05-10T07:33:09.090Z,162.10
2023-05-10T07:34:09.099Z,166.22
2023-05-10T07:35:09.094Z,161.61
2023-05-10T07:36:09.438Z,159.83
2023-05-10T07:37:09.073Z,169.14
2023-05-10T07:38:09.055Z,175.97
2023-05-10T07:39:09.067Z,172.24
2023-05-10T07:40:09.064Z,178.50
2023-05-10T07:41:08.992Z,179.53
2023-05-10T07:42:08.989Z,166.56
2023-05-10T07:43:08.994Z,171.54
2023-05-10T07:44:08.991Z,158.71
2023-05-10T07:45:09.021Z,150.87
2023-05-10T07:46:09.142Z,145.76
2023-05-10T07:47:08.984Z,153.75
2023-05-10T07:48:08.985Z,166.58
2023-05-10T07:49:08.996Z,169.58
2023-05-10T07:50:09.032Z,168.79
2023-05-10T07:51:08.931Z,160.30
2023-05-10T07:52:08.940Z,160.37
2023-05-10T07:53:08.952Z,155.93
2023-05-10T07:54:08.931Z,157.69
2023-05-10T07:55:08.925Z,165.01
2023-05-10T07:56:08.929Z,169.28
2023-05-10T07:57:08.933Z,171.79
2023-05-10T07:58:08.894Z,173.64
2023-05-10T07:59:10.695Z,177.96
2023-05-10T08:00:08.895Z,180.01
2023-05-10T08:01:08.929Z,184.32
2023-05-10T08:02:08.883Z,185.89
2023-05-10T08:03:08.986Z,187.31
2023-05-10T08:04:08.941Z,186.80
2023-05-10T08:05:08.913Z,186.97
2023-05-10T08:06:08.831Z,186.18
2023-05-10T08:07:08.830Z,191.82
2023-05-10T08:08:08.838Z,192.37
2023-05-10T08:09:08.806Z,194.55
2023-05-10T08:10:08.817Z,199.47
2023-05-10T08:11:08.783Z,202.67
2023-05-10T08:12:08.830Z,201.68
2023-05-10T08:13:08.802Z,199.57
2023-05-10T08:14:08.790Z,194.74
2023-05-10T08:15:08.808Z,197.46
2023-05-10T08:16:08.853Z,194.74
2023-05-10T08:17:08.776Z,191.10
2023-05-10T08:18:08.954Z,194.96
2023-05-10T08:19:08.757Z,198.20
2023-05-10T08:20:08.728Z,198.45
2023-05-10T08:21:08.720Z,174.42
2023-05-10T08:22:08.747Z,141.61
2023-05-10T08:23:08.741Z,114.20
2023-05-10T08:24:08.770Z,120.07
2023-05-10T08:25:08.770Z,138.13
2023-05-10T08:26:08.705Z,145.52
2023-05-10T08:27:08.727Z,151.93
2023-05-10T08:28:09.971Z,155.18
2023-05-10T08:29:08.883Z,154.92
2023-05-10T08:30:08.946Z,147.50
2023-05-10T08:31:08.937Z,150.52
2023-05-10T08:32:08.902Z,138.78
2023-05-10T08:33:09.047Z,132.90
2023-05-10T08:34:08.931Z,118.12
2023-05-10T08:35:08.998Z,123.05
2023-05-10T08:36:08.946Z,124.23
2023-05-10T08:37:09.006Z,116.74
2023-05-10T08:38:09.045Z,114.83
2023-05-10T08:39:16.256Z,107.15
2023-05-10T08:40:10.102Z,107.50
2023-05-10T08:41:09.085Z,107.77
2023-05-10T08:42:09.024Z,105.72
2023-05-10T08:43:09.031Z,108.46
2023-05-10T08:44:09.058Z,117.66
2023-05-10T08:45:09.231Z,119.89
2023-05-10T08:46:09.046Z,122.72
2023-05-10T08:47:09.151Z,130.73
2023-05-10T08:48:09.027Z,133.36
2023-05-10T08:49:09.004Z,135.96
2023-05-10T08:50:08.988Z,140.59
2023-05-10T08:51:09.450Z,141.29
2023-05-10T08:52:09.000Z,146.00
2023-05-10T08:53:08.964Z,147.90
2023-05-10T08:54:08.968Z,149.84
2023-05-10T08:55:08.984Z,147.83
2023-05-10T08:56:08.962Z,153.80
2023-05-10T08:57:08.998Z,159.21
2023-05-10T08:58:08.985Z,162.68
2023-05-10T08:59:09.058Z,172.16
2023-05-10T09:00:09.173Z,173.46
2023-05-10T09:01:09.165Z,169.06
2023-05-10T09:02:09.113Z,168.40
2023-05-10T09:03:09.205Z,170.13
2023-05-10T09:04:09.286Z,173.89
2023-05-10T09:05:09.281Z,168.76
2023-05-10T09:06:09.261Z,173.77
2023-05-10T09:07:09.244Z,176.92
2023-05-10T09:08:09.260Z,180.04
2023-05-10T09:09:09.865Z,185.67
2023-05-10T09:10:09.272Z,181.93
2023-05-10T09:11:09.334Z,183.47
2023-05-10T09:12:09.300Z,186.12
2023-05-10T09:13:09.295Z,192.87
2023-05-10T09:14:09.426Z,193.17
2023-05-10T09:15:09.336Z,190.30
2023-05-10T09:16:20.506Z,195.05
2023-05-10T09:17:10.381Z,195.20
2023-05-10T09:18:09.389Z,195.57
2023-05-10T09:19:09.402Z,196.38
2023-05-10T09:20:09.301Z,198.90
2023-05-10T09:21:09.309Z,201.02
2023-05-10T09:22:09.314Z,202.98
2023-05-10T09:23:09.289Z,206.08
2023-05-10T09:24:09.260Z,202.51
2023-05-10T09:25:09.302Z,202.20
2023-05-10T09:26:09.245Z,202.21
2023-05-10T09:27:09.252Z,204.83
2023-05-10T09:28:09.292Z,201.10
2023-05-10T09:29:09.271Z,204.20
2023-05-10T09:30:09.234Z,204.43
2023-05-10T09:31:09.261Z,200.77
2023-05-10T09:32:09.230Z,200.41
2023-05-10T09:33:09.178Z,203.31
2023-05-10T09:34:09.206Z,205.59
2023-05-10T09:35:09.418Z,205.00
2023-05-10T09:36:09.152Z,211.23
2023-05-10T09:37:09.210Z,212.03
2023-05-10T09:38:09.161Z,212.22
2023-05-10T09:39:09.155Z,216.11
2023-05-10T09:40:09.128Z,218.84
2023-05-10T09:41:09.139Z,226.02
2023-05-10T09:42:09.138Z,216.77
2023-05-10T09:43:09.181Z,218.65
2023-05-10T09:44:09.163Z,221.74
2023-05-10T09:45:09.102Z,227.49
2023-05-10T09:46:09.238Z,231.10
2023-05-10T09:47:09.328Z,233.58
2023-05-10T09:48:09.232Z,229.19
2023-05-10T09:49:09.258Z,237.21
2023-05-10T09:50:09.345Z,240.22
2023-05-10T09:51:09.358Z,228.64
2023-05-10T09:52:09.455Z,226.63
2023-05-10T09:53:09.461Z,232.50
2023-05-10T09:54:09.638Z,229.73
2023-05-10T09:55:09.583Z,224.68
2023-05-10T09:56:09.678Z,220.33
2023-05-10T09:57:09.714Z,217.07
2023-05-10T09:58:09.812Z,221.86
2023-05-10T09:59:09.836Z,203.39
2023-05-10T10:00:09.822Z,190.25
2023-05-10T10:01:09.822Z,147.21
2023-05-10T10:02:09.822Z,109.59
2023-05-10T10:03:09.856Z,76.38
2023-05-10T10:04:09.815Z,74.86
2023-05-10T10:05:09.934Z,59.18
2023-05-10T10:06:15.962Z,49.09
2023-05-10T10:07:10.859Z,35.59
2023-05-10T10:08:09.991Z,23.02
2023-05-10T10:09:09.866Z,22.28
2023-05-10T10:10:09.822Z,16.36
2023-05-10T10:11:09.868Z,4.23
2023-05-10T10:12:09.794Z,24.90
2023-05-10T10:13:09.955Z,28.10
2023-05-10T10:14:09.973Z,32.85
2023-05-10T10:15:09.987Z,54.95
2023-05-10T10:16:09.851Z,25.05
2023-05-10T10:17:09.925Z,28.48
2023-05-10T10:18:09.805Z,25.90
2023-05-10T10:19:09.920Z,30.00
2023-05-10T10:20:11.883Z,31.41
2023-05-10T10:21:09.869Z,26.95
2023-05-10T10:22:10.004Z,24.47
2023-05-10T10:23:09.917Z,35.64
2023-05-10T10:24:09.887Z,48.42
2023-05-10T10:25:09.908Z,42.77
2023-05-10T10:26:09.894Z,25.00
2023-05-10T10:27:10.009Z,37.01
2023-05-10T10:28:09.901Z,28.95
2023-05-10T10:29:09.923Z,20.12
2023-05-10T10:30:10.041Z,15.20
2023-05-10T10:31:10.033Z,25.00
2023-05-10T10:32:10.059Z,18.88
2023-05-10T10:33:16.879Z,54.96
2023-05-10T10:34:11.052Z,55.99
2023-05-10T10:35:10.554Z,61.36
2023-05-10T10:36:10.036Z,71.66
2023-05-10T10:37:10.063Z,88.45
2023-05-10T10:38:10.073Z,101.58
2023-05-10T10:39:09.991Z,106.28
2023-05-10T10:40:10.013Z,99.14
2023-05-10T10:41:10.060Z,90.04
2023-05-10T10:42:09.997Z,94.12
2023-05-10T10:43:10.091Z,80.15
2023-05-10T10:44:09.980Z,71.39
2023-05-10T10:45:09.997Z,99.28
2023-05-10T10:46:09.995Z,121.04
2023-05-10T10:47:10.057Z,128.14
2023-05-10T10:48:09.972Z,130.16
2023-05-10T10:49:09.958Z,129.95
2023-05-10T10:50:09.930Z,133.60
2023-05-10T10:51:12.201Z,135.67
2023-05-10T10:52:09.940Z,135.99
2023-05-10T10:53:09.993Z,139.35
2023-05-10T10:54:09.977Z,139.97
2023-05-10T10:55:10.002Z,137.69
2023-05-10T10:56:09.901Z,140.51
2023-05-10T10:57:09.955Z,141.55
2023-05-10T10:58:09.922Z,138.52
2023-05-10T10:59:09.898Z,139.52
2023-05-10T11:00:09.934Z,142.05
2023-05-10T11:01:09.937Z,146.62
2023-05-10T11:02:09.913Z,142.20
2023-05-10T11:03:09.994Z,145.57
2023-05-10T11:04:09.921Z,147.60
2023-05-10T11:05:09.897Z,150.13
2023-05-10T11:06:09.869Z,149.02
2023-05-10T11:07:09.827Z,152.69
2023-05-10T11:08:09.795Z,152.39
2023-05-10T11:09:09.848Z,152.65
2023-05-10T11:10:10.484Z,149.74
2023-05-10T11:11:09.890Z,149.64
2023-05-10T11:12:09.792Z,146.21
2023-05-10T11:13:09.838Z,147.34
2023-05-10T11:14:09.832Z,150.06
2023-05-10T11:15:09.792Z,151.28
2023-05-10T11:16:09.816Z,152.39
2023-05-10T11:17:09.863Z,154.46
2023-05-10T11:18:09.749Z,120.97
2023-05-10T11:19:09.982Z,79.72
2023-05-10T11:20:09.759Z,72.54
2023-05-10T11:21:09.727Z,71.21
2023-05-10T11:22:09.720Z,80.04
2023-05-10T11:23:09.752Z,78.16
2023-05-10T11:24:09.719Z,61.43
2023-05-10T11:25:09.692Z,58.65
2023-05-10T11:26:10.490Z,44.86
2023-05-10T11:27:09.722Z,35.26
2023-05-10T11:28:09.902Z,25.48
2023-05-10T11:29:09.692Z,12.53
2023-05-10T11:30:09.682Z,22.39
2023-05-10T11:31:09.680Z,26.21
2023-05-10T11:32:09.649Z,25.00
2023-05-10T11:33:09.764Z,26.54
2023-05-10T11:34:09.653Z,30.71
2023-05-10T11:35:09.648Z,42.25
2023-05-10T11:36:09.722Z,42.91
2023-05-10T11:37:09.633Z,52.53
2023-05-10T11:38:09.661Z,44.69
2023-05-10T11:39:09.644Z,33.57
2023-05-10T11:40:09.649Z,35.99
2023-05-10T11:41:09.600Z,24.04
2023-05-10T11:42:09.602Z,25.00
2023-05-10T11:43:09.604Z,30.84
2023-05-10T11:44:09.595Z,31.63
2023-05-10T11:45:09.630Z,31.76
2023-05-10T11:46:09.550Z,30.41
2023-05-10T11:47:09.620Z,17.69
2023-05-10T11:48:09.626Z,22.01
2023-05-10T11:49:09.541Z,22.65
2023-05-10T11:50:09.549Z,25.76
2023-05-10T11:51:09.518Z,25.88
2023-05-10T11:52:09.532Z,25.75
2023-05-10T11:53:09.547Z,32.18
2023-05-10T11:54:09.538Z,36.93
2023-05-10T11:55:09.542Z,32.93
2023-05-10T11:56:09.483Z,30.07
2023-05-10T11:57:09.518Z,25.00
2023-05-10T11:58:09.461Z,24.63
2023-05-10T11:59:09.533Z,25.50
2023-05-10T12:00:09.522Z,29.91
2023-05-10T12:01:09.476Z,28.28
2023-05-10T12:02:09.537Z,31.92
2023-05-10T12:03:09.571Z,47.01
2023-05-10T12:04:09.757Z,58.31
2023-05-10T12:05:09.529Z,69.35
2023-05-10T12:06:09.525Z,78.42
2023-05-10T12:07:09.569Z,88.38
2023-05-10T12:08:09.620Z,98.88
2023-05-10T12:09:09.654Z,101.95
2023-05-10T12:10:10.304Z,105.71
2023-05-10T12:11:09.791Z,118.78
2023-05-10T12:12:09.714Z,111.04
2023-05-10T12:13:10.019Z,116.80
2023-05-10T12:14:09.827Z,118.02
2023-05-10T12:15:09.889Z,115.32
2023-05-10T12:16:09.992Z,123.00
2023-05-10T12:17:10.014Z,130.56
2023-05-10T12:18:10.113Z,143.80
2023-05-10T12:19:10.240Z,144.86
2023-05-10T12:20:10.055Z,147.33
2023-05-10T12:21:10.164Z,145.89
2023-05-10T12:22:10.151Z,142.05
2023-05-10T12:23:10.203Z,132.33
2023-05-10T12:24:10.187Z,132.62
2023-05-10T12:25:10.213Z,135.62
2023-05-10T12:26:10.300Z,139.26
2023-05-10T12:27:10.274Z,141.76
2023-05-10T12:28:10.302Z,138.37
2023-05-10T12:29:10.348Z,142.51
2023-05-10T12:30:10.332Z,133.16
2023-05-10T12:31:10.394Z,139.53
2023-05-10T12:32:10.438Z,145.25